createdAt,value
2022-12-11T00:02:06.512Z,101286.16
2022-12-11T00:04:32.977Z,101276.44
2022-12-11T00:06:59.391Z,101278.06
2022-12-11T00:09:26.090Z,101281.53
2022-12-11T00:11:52.674Z,101277.09
2022-12-11T00:14:19.276Z,101293.78
2022-12-11T00:16:48.063Z,101279.75
2022-12-11T00:19:15.146Z,101289.38
2022-12-11T00:21:41.477Z,101284.00
2022-12-11T00:24:07.858Z,101285.00
2022-12-11T00:26:34.172Z,101275.28
2022-12-11T00:29:00.534Z,101277.88
2022-12-11T00:31:26.990Z,101274.41
2022-12-11T00:33:54.676Z,101276.66
2022-12-11T00:36:23.651Z,101274.63
2022-12-11T00:38:51.179Z,101274.00
2022-12-11T00:41:17.990Z,101279.16
2022-12-11T00:43:44.772Z,101273.75
2022-12-11T00:46:13.167Z,101263.41
2022-12-11T00:48:39.603Z,101262.94
2022-12-11T00:51:06.407Z,101264.81
2022-12-11T00:53:33.007Z,101258.78
2022-12-11T00:55:59.431Z,101257.69
2022-12-11T00:58:26.072Z,101263.03
2022-12-11T01:00:52.407Z,101264.53
2022-12-11T01:03:19.078Z,101257.69
2022-12-11T01:05:53.712Z,101256.53
2022-12-11T01:08:20.658Z,101253.88
2022-12-11T01:10:47.472Z,101247.91
2022-12-11T01:13:13.994Z,101246.41
2022-12-11T01:15:42.819Z,101243.81
2022-12-11T01:18:10.734Z,101245.44
2022-12-11T01:20:39.292Z,101254.41
2022-12-11T01:23:06.101Z,101250.00
2022-12-11T01:25:32.905Z,101251.66
2022-12-11T01:27:59.541Z,101250.59
2022-12-11T01:30:26.095Z,101255.03
2022-12-11T01:32:52.920Z,101247.28
2022-12-11T01:35:19.802Z,101260.22
2022-12-11T01:37:46.399Z,101257.69
2022-12-11T01:40:14.912Z,101251.56
2022-12-11T01:42:41.550Z,101258.94
2022-12-11T01:45:30.737Z,101264.91
2022-12-11T01:48:05.379Z,101276.66
2022-12-11T01:50:37.320Z,101271.03
2022-12-11T01:53:06.919Z,101270.16
2022-12-11T01:55:34.458Z,101266.56
2022-12-11T01:58:02.643Z,101263.66
2022-12-11T02:00:29.321Z,101252.53
2022-12-11T02:02:55.678Z,101256.63
2022-12-11T02:05:22.023Z,101266.25
2022-12-11T02:07:54.465Z,101257.09
2022-12-11T02:10:28.947Z,101249.28
2022-12-11T02:13:12.272Z,101247.53
2022-12-11T02:15:48.319Z,101246.59
2022-12-11T02:18:36.565Z,101251.78
2022-12-11T02:21:29.112Z,101253.56
2022-12-11T02:24:19.078Z,101242.84
2022-12-11T02:27:05.855Z,101238.44
2022-12-11T02:29:42.442Z,101233.03
2022-12-11T02:32:13.866Z,101231.41
2022-12-11T02:34:46.987Z,101224.25
2022-12-11T02:37:23.166Z,101220.66
2022-12-11T02:39:53.902Z,101217.78
2022-12-11T02:42:21.658Z,101219.91
2022-12-11T02:44:49.477Z,101216.53
2022-12-11T02:47:17.852Z,101210.31
2022-12-11T02:49:48.235Z,101209.53
2022-12-11T02:52:18.755Z,101217.59
2022-12-11T02:54:47.080Z,101217.31
2022-12-11T02:57:27.880Z,101218.25
2022-12-11T02:59:54.512Z,101223.19
2022-12-11T03:02:21.261Z,101218.03
2022-12-11T03:04:48.353Z,101223.13
2022-12-11T03:07:25.977Z,101224.00
2022-12-11T03:09:53.192Z,101212.28
2022-12-11T03:12:25.212Z,101209.63
2022-12-11T03:14:51.704Z,101214.97
2022-12-11T03:17:30.526Z,101215.66
2022-12-11T03:20:22.319Z,101219.28
2022-12-11T03:22:56.845Z,101220.09
2022-12-11T03:25:28.246Z,101232.78
2022-12-11T03:27:58.696Z,101231.13
2022-12-11T03:30:28.380Z,101230.03
2022-12-11T03:33:01.108Z,101222.16
2022-12-11T03:35:44.142Z,101222.97
2022-12-11T03:38:17.676Z,101218.50
2022-12-11T03:40:48.950Z,101223.84
2022-12-11T03:43:16.242Z,101231.59
2022-12-11T03:45:44.693Z,101217.25
2022-12-11T03:48:13.380Z,101224.38
2022-12-11T03:50:41.491Z,101225.41
2022-12-11T03:53:08.605Z,101225.50
2022-12-11T03:55:37.832Z,101216.53
2022-12-11T03:58:04.511Z,101211.50
2022-12-11T04:00:31.551Z,101212.94
2022-12-11T04:02:58.079Z,101218.97
2022-12-11T04:05:24.403Z,101219.59
2022-12-11T04:07:50.842Z,101223.47
2022-12-11T04:10:17.302Z,101217.41
2022-12-11T04:12:43.817Z,101217.41
2022-12-11T04:15:10.834Z,101214.84
2022-12-11T04:17:37.553Z,101225.63
2022-12-11T04:20:05.599Z,101224.63
2022-12-11T04:22:32.090Z,101214.84
2022-12-11T04:24:58.768Z,101211.38
2022-12-11T04:27:25.579Z,101208.78
2022-12-11T04:29:52.116Z,101206.03
2022-12-11T04:32:18.493Z,101202.50
2022-12-11T04:34:45.023Z,101196.22
2022-12-11T04:37:11.338Z,101197.41
2022-12-11T04:39:37.642Z,101194.44
2022-12-11T04:42:04.246Z,101199.06
2022-12-11T04:44:30.661Z,101197.50
2022-12-11T04:46:57.071Z,101194.84
2022-12-11T04:49:23.395Z,101185.25
2022-12-11T04:51:49.746Z,101190.66
2022-12-11T04:54:17.694Z,101190.59
2022-12-11T04:56:43.998Z,101186.34
2022-12-11T04:59:11.403Z,101192.53
2022-12-11T05:01:37.744Z,101191.50
2022-12-11T05:04:04.264Z,101190.66
2022-12-11T05:06:30.626Z,101190.75
2022-12-11T05:08:56.974Z,101196.91
2022-12-11T05:11:23.604Z,101193.50
2022-12-11T05:13:49.987Z,101199.75
2022-12-11T05:16:17.252Z,101197.94
2022-12-11T05:18:43.934Z,101193.53
2022-12-11T05:21:12.730Z,101199.59
2022-12-11T05:23:39.781Z,101197.72
2022-12-11T05:26:13.076Z,101203.03
2022-12-11T05:28:40.235Z,101197.72
2022-12-11T05:31:12.589Z,101197.88
2022-12-11T05:33:41.417Z,101191.59
2022-12-11T05:36:08.598Z,101184.53
2022-12-11T05:38:35.487Z,101180.38
2022-12-11T05:41:05.606Z,101193.69
2022-12-11T05:43:34.224Z,101186.75
2022-12-11T05:46:11.005Z,101186.50
2022-12-11T05:48:37.932Z,101190.16
2022-12-11T05:51:05.802Z,101195.50
2022-12-11T05:53:32.810Z,101189.41
2022-12-11T05:56:08.231Z,101186.66
2022-12-11T05:58:35.356Z,101178.66
2022-12-11T06:01:08.628Z,101178.59
2022-12-11T06:03:35.349Z,101177.78
2022-12-11T06:06:02.814Z,101167.84
2022-12-11T06:08:29.773Z,101168.16
2022-12-11T06:10:56.276Z,101180.53
2022-12-11T06:13:23.001Z,101167.75
2022-12-11T06:15:49.920Z,101087.22
2022-12-11T06:18:16.397Z,101186.03
2022-12-11T06:20:43.091Z,101121.56
2022-12-11T06:23:10.857Z,101115.84
2022-12-11T06:25:40.567Z,101141.00
2022-12-11T06:28:14.807Z,101126.56
2022-12-11T06:30:43.715Z,101211.56
2022-12-11T06:33:10.334Z,101137.31
2022-12-11T06:35:42.075Z,101100.63
2022-12-11T06:38:09.977Z,101166.13
2022-12-11T06:40:36.330Z,101169.31
2022-12-11T06:43:02.806Z,101171.38
2022-12-11T06:45:29.364Z,101197.69
2022-12-11T06:48:00.448Z,101182.31
2022-12-11T06:50:26.935Z,101199.13
2022-12-11T06:52:56.503Z,101063.72
2022-12-11T06:55:23.289Z,101055.00
2022-12-11T06:57:49.892Z,101110.94
2022-12-11T07:00:16.754Z,101101.06
2022-12-11T07:02:44.401Z,101157.59
2022-12-11T07:05:11.477Z,101114.63
2022-12-11T07:07:39.471Z,101045.19
2022-12-11T07:10:08.527Z,101155.97
2022-12-11T07:12:35.924Z,101209.22
2022-12-11T07:15:06.897Z,101160.16
2022-12-11T07:17:34.493Z,101124.94
2022-12-11T07:20:01.221Z,101167.56
2022-12-11T07:22:29.223Z,101143.00
2022-12-11T07:24:56.087Z,101184.50
2022-12-11T07:27:23.416Z,101035.75
2022-12-11T07:29:51.484Z,101147.41
2022-12-11T07:32:19.640Z,101067.09
2022-12-11T07:34:51.558Z,101136.25
2022-12-11T07:37:18.847Z,101145.66
2022-12-11T07:39:46.536Z,101251.44
2022-12-11T07:42:13.513Z,101120.03
2022-12-11T07:44:40.394Z,101161.06
2022-12-11T07:47:07.061Z,101244.84
2022-12-11T07:49:34.848Z,101141.53
2022-12-11T07:52:01.387Z,101088.34
2022-12-11T07:54:27.876Z,101215.63
2022-12-11T07:56:54.665Z,101125.38
2022-12-11T07:59:21.376Z,101110.97
2022-12-11T08:01:48.209Z,101241.56
2022-12-11T08:04:15.181Z,101165.91
2022-12-11T08:06:43.937Z,101037.72
2022-12-11T08:09:20.408Z,101059.78
2022-12-11T08:11:52.106Z,101070.28
2022-12-11T08:14:19.540Z,101062.94
2022-12-11T08:16:49.552Z,101164.16
2022-12-11T08:19:16.757Z,101212.78
2022-12-11T08:24:26.217Z,101202.84
2022-12-11T08:26:52.853Z,101204.44
2022-12-11T08:29:19.575Z,101248.44
2022-12-11T08:31:46.376Z,101233.50
2022-12-11T08:34:12.955Z,101242.31
2022-12-11T08:36:40.066Z,101162.59
2022-12-11T08:39:07.560Z,101216.41
2022-12-11T08:41:34.252Z,101120.09
2022-12-11T08:44:00.735Z,101119.53
2022-12-11T08:49:11.887Z,101186.97
2022-12-11T08:51:38.981Z,101163.84
2022-12-11T08:54:06.121Z,101129.03
2022-12-11T08:56:33.221Z,101213.16
2022-12-11T08:59:03.601Z,101134.31
2022-12-11T09:01:30.926Z,101095.09
2022-12-11T09:03:59.477Z,101125.63
2022-12-11T09:06:28.843Z,101041.25
2022-12-11T09:11:41.617Z,101181.16
2022-12-11T09:14:08.404Z,101183.72
2022-12-11T09:16:36.637Z,101200.78
2022-12-11T09:19:03.674Z,101194.41
2022-12-11T09:21:30.292Z,101198.03
2022-12-11T09:23:59.420Z,101200.53
2022-12-11T09:26:28.509Z,101197.00
2022-12-11T09:28:55.203Z,101197.78
2022-12-11T09:31:21.576Z,101201.78
2022-12-11T09:33:47.923Z,101199.50
2022-12-11T09:36:14.269Z,101197.00
2022-12-11T09:38:41.405Z,101193.63
2022-12-11T09:41:29.415Z,101195.69
2022-12-11T09:44:01.861Z,101197.88
2022-12-11T09:46:33.796Z,101193.63
2022-12-11T09:49:03.416Z,101198.66
2022-12-11T09:52:03.719Z,101190.50
2022-12-11T09:54:30.379Z,101192.38
2022-12-11T09:57:17.124Z,101187.13
2022-12-11T10:00:19.785Z,101191.13
2022-12-11T10:02:55.234Z,101191.75
2022-12-11T10:05:49.728Z,101188.72
2022-12-11T10:08:30.520Z,101188.91
2022-12-11T10:11:23.781Z,101193.50
2022-12-11T10:14:06.009Z,101193.63
2022-12-11T10:16:38.976Z,101180.31
2022-12-11T10:19:06.057Z,101181.47
2022-12-11T10:21:40.080Z,101182.88
2022-12-11T10:25:07.496Z,101181.00
2022-12-11T10:27:20.926Z,101189.34
2022-12-11T10:29:52.954Z,101182.44
2022-12-11T10:32:24.931Z,101180.19
2022-12-11T10:35:01.715Z,101162.91
2022-12-11T10:37:28.303Z,101177.97
2022-12-11T10:39:54.744Z,101167.47
2022-12-11T10:42:22.771Z,101180.13
2022-12-11T10:45:04.404Z,101167.38
2022-12-11T10:47:30.823Z,101169.56
2022-12-11T10:50:02.012Z,101170.97
2022-12-11T10:52:42.612Z,101168.22
2022-12-11T10:55:30.366Z,101162.56
2022-12-11T10:58:00.665Z,101167.81
2022-12-11T11:00:38.296Z,101161.63
2022-12-11T11:03:22.751Z,101164.78
2022-12-11T11:05:49.735Z,101166.34
2022-12-11T11:08:21.820Z,101161.78
2022-12-11T11:10:52.512Z,101170.41
2022-12-11T11:13:21.880Z,101164.91
2022-12-11T11:15:49.274Z,101153.84
2022-12-11T11:18:28.736Z,101143.97
2022-12-11T11:20:55.516Z,101153.44
2022-12-11T11:23:23.755Z,101151.31
2022-12-11T11:25:56.030Z,101140.47
2022-12-11T11:28:29.454Z,101155.09
2022-12-11T11:31:08.794Z,101139.19
2022-12-11T11:33:37.510Z,101147.50
2022-12-11T11:36:07.537Z,101151.13
2022-12-11T11:39:06.022Z,101152.84
2022-12-11T11:42:01.770Z,101145.97
2022-12-11T11:44:34.732Z,101139.09
2022-12-11T11:47:10.856Z,101150.97
2022-12-11T11:49:55.971Z,101143.34
2022-12-11T11:52:40.443Z,101145.88
2022-12-11T11:55:42.490Z,101131.31
2022-12-11T11:58:19.883Z,101130.34
2022-12-11T12:00:46.864Z,101125.97
2022-12-11T12:03:16.882Z,101131.16
2022-12-11T12:05:48.919Z,101138.38
2022-12-11T12:09:06.479Z,101120.88
2022-12-11T12:11:49.284Z,101135.34
2022-12-11T12:17:31.032Z,101127.78
2022-12-11T12:20:00.240Z,101130.09
2022-12-11T12:22:52.347Z,101118.94
2022-12-11T12:25:31.481Z,101118.84
2022-12-11T12:28:12.557Z,101111.34
2022-12-11T12:31:13.028Z,101113.94
2022-12-11T12:34:02.531Z,101111.88
2022-12-11T12:36:49.356Z,101118.06
2022-12-11T12:39:24.209Z,101119.81
2022-12-11T12:42:11.232Z,101120.91
2022-12-11T12:45:01.817Z,101116.44
2022-12-11T12:47:32.588Z,101115.84
2022-12-11T12:50:01.126Z,101109.63
2022-12-11T12:52:37.672Z,101114.19
2022-12-11T12:55:13.460Z,101098.34
2022-12-11T12:57:43.994Z,101106.88
2022-12-11T13:00:13.486Z,101105.06
2022-12-11T13:02:50.838Z,101097.56
2022-12-11T13:05:24.802Z,101111.41
2022-12-11T13:08:04.764Z,101120.03
2022-12-11T13:10:38.672Z,101112.63
2022-12-11T13:13:25.495Z,101110.72
2022-12-11T13:15:51.901Z,101111.84
2022-12-11T13:18:39.164Z,101109.53
2022-12-11T13:21:29.874Z,101114.88
2022-12-11T13:24:14.993Z,101115.13
2022-12-11T13:26:42.302Z,101120.28
2022-12-11T13:29:32.407Z,101123.13
2022-12-11T13:32:04.928Z,101123.44
2022-12-11T13:34:33.311Z,101125.38
2022-12-11T13:37:01.423Z,101119.41
2022-12-11T13:39:31.818Z,101115.78
2022-12-11T13:42:02.484Z,101127.06
2022-12-11T13:44:39.355Z,101127.16
2022-12-11T13:47:10.582Z,101129.56
2022-12-11T13:49:41.195Z,101130.34
2022-12-11T13:52:15.817Z,101122.84
2022-12-11T13:54:47.940Z,101119.72
2022-12-11T13:57:20.324Z,101128.44
2022-12-11T13:59:53.297Z,101133.84
2022-12-11T14:02:35.230Z,101135.44
2022-12-11T14:05:05.716Z,101120.59
2022-12-11T14:07:36.029Z,101134.72
2022-12-11T14:10:07.682Z,101123.50
2022-12-11T14:12:34.352Z,101130.56
2022-12-11T14:15:03.982Z,101114.13
2022-12-11T14:17:32.806Z,101125.41
2022-12-11T14:20:03.123Z,101132.19
2022-12-11T14:22:30.723Z,101121.00
2022-12-11T14:25:00.205Z,101133.22
2022-12-11T14:27:27.693Z,101137.88
2022-12-11T14:29:55.117Z,101116.94
2022-12-11T14:32:31.534Z,101136.13
2022-12-11T14:34:58.840Z,101126.59
2022-12-11T14:37:26.195Z,101136.28
2022-12-11T14:40:10.319Z,101131.56
2022-12-11T14:42:43.693Z,101127.19
2022-12-11T14:45:20.815Z,101127.19
2022-12-11T14:47:47.523Z,101123.34
2022-12-11T14:50:22.619Z,101131.34
2022-12-11T14:52:54.203Z,101122.66
2022-12-11T14:55:34.802Z,101114.03
2022-12-11T14:58:17.629Z,101130.78
2022-12-11T15:00:44.014Z,101132.53
2022-12-11T15:03:10.340Z,101132.44
2022-12-11T15:05:50.109Z,101144.00
2022-12-11T15:08:25.665Z,101144.06
2022-12-11T15:10:58.383Z,101144.13
2022-12-11T15:13:25.301Z,101149.41
2022-12-11T15:15:54.349Z,101144.13
2022-12-11T15:18:24.382Z,101131.22
2022-12-11T15:20:53.479Z,101147.84
2022-12-11T15:23:20.068Z,101148.53
2022-12-11T15:25:55.359Z,101146.88
2022-12-11T15:28:34.795Z,101152.06
2022-12-11T15:31:04.936Z,101147.75
2022-12-11T15:33:34.531Z,101129.41
2022-12-11T15:36:04.707Z,101144.84
2022-12-11T15:38:40.236Z,101155.59
2022-12-11T15:41:13.559Z,101159.91
2022-12-11T15:43:40.379Z,101152.06
2022-12-11T15:46:06.917Z,101153.25
2022-12-11T15:48:33.772Z,101156.84
2022-12-11T15:51:00.306Z,101152.47
2022-12-11T15:53:26.657Z,101158.59
2022-12-11T15:55:53.606Z,101167.81
2022-12-11T15:58:22.338Z,101168.09
2022-12-11T16:00:48.996Z,101162.19
2022-12-11T16:03:17.673Z,101165.88
2022-12-11T16:05:45.434Z,101158.66
2022-12-11T16:08:17.284Z,101155.13
2022-12-11T16:10:44.869Z,101153.34
2022-12-11T16:13:12.243Z,101163.84
2022-12-11T16:15:41.108Z,101166.16
2022-12-11T16:18:12.858Z,101160.06
2022-12-11T16:20:40.383Z,101155.59
2022-12-11T16:23:08.249Z,101160.22
2022-12-11T16:25:37.844Z,101154.25
2022-12-11T16:28:05.015Z,101149.97
2022-12-11T16:30:31.575Z,101149.72
2022-12-11T16:32:57.967Z,101158.50
2022-12-11T16:35:24.284Z,101152.56
2022-12-11T16:37:54.140Z,101152.38
2022-12-11T16:40:21.234Z,101164.09
2022-12-11T16:42:48.172Z,101154.44
2022-12-11T16:45:23.101Z,101159.50
2022-12-11T16:47:49.564Z,101149.88
2022-12-11T16:50:17.158Z,101148.31
2022-12-11T16:52:45.482Z,101153.41
2022-12-11T16:55:13.100Z,101154.44
2022-12-11T16:57:39.939Z,101144.94
2022-12-11T17:00:08.551Z,101147.38
2022-12-11T17:02:35.912Z,101147.38
2022-12-11T17:05:02.550Z,101148.22
2022-12-11T17:07:29.189Z,101152.72
2022-12-11T17:09:55.563Z,101152.72
2022-12-11T17:12:22.085Z,101156.63
2022-12-11T17:14:48.522Z,101154.59
2022-12-11T17:17:14.823Z,101153.03
2022-12-11T17:19:41.403Z,101158.44
2022-12-11T17:22:07.750Z,101156.81
2022-12-11T17:24:34.091Z,101148.03
2022-12-11T17:27:00.423Z,101145.44
2022-12-11T17:29:29.229Z,101144.41
2022-12-11T17:31:55.639Z,101146.06
2022-12-11T17:34:21.974Z,101150.59
2022-12-11T17:36:48.289Z,101160.41
2022-12-11T17:39:14.919Z,101144.03
2022-12-11T17:41:41.293Z,101157.72
2022-12-11T17:44:07.660Z,101153.34
2022-12-11T17:46:34.315Z,101141.28
2022-12-11T17:49:03.115Z,101156.84
2022-12-11T17:51:29.566Z,101153.19
2022-12-11T17:53:56.088Z,101158.50
2022-12-11T17:56:23.214Z,101156.72
2022-12-11T17:58:49.788Z,101158.69
2022-12-11T18:01:16.338Z,101158.69
2022-12-11T18:03:42.769Z,101161.19
2022-12-11T18:06:13.129Z,101160.22
2022-12-11T18:08:39.788Z,101159.38
2022-12-11T18:11:13.130Z,101161.44
2022-12-11T18:13:40.116Z,101156.03
2022-12-11T18:16:12.227Z,101164.56
2022-12-11T18:18:39.525Z,101165.19
2022-12-11T18:21:06.134Z,101171.22
2022-12-11T18:23:33.145Z,101165.97
2022-12-11T18:25:59.653Z,101162.44
2022-12-11T18:28:26.120Z,101155.84
2022-12-11T18:30:52.501Z,101162.84
2022-12-11T18:33:18.892Z,101167.94
2022-12-11T18:35:45.421Z,101167.38
2022-12-11T18:38:12.277Z,101165.56
2022-12-11T18:40:38.743Z,101156.94
2022-12-11T18:43:05.133Z,101177.97
2022-12-11T18:45:34.715Z,101173.25
2022-12-11T18:48:01.495Z,101158.34
2022-12-11T18:50:27.832Z,101176.00
2022-12-11T18:52:55.573Z,101173.25
2022-12-11T18:55:22.069Z,101179.28
2022-12-11T18:57:48.675Z,101183.03
2022-12-11T19:00:15.695Z,101180.22
2022-12-11T19:02:42.706Z,101187.47
2022-12-11T19:05:10.472Z,101176.09
2022-12-11T19:07:38.029Z,101178.81
2022-12-11T19:10:04.962Z,101173.72
2022-12-11T19:12:31.293Z,101167.59
2022-12-11T19:14:59.063Z,101169.16
2022-12-11T19:17:25.587Z,101166.59
2022-12-11T19:19:51.938Z,101174.66
2022-12-11T19:22:18.244Z,101168.69
2022-12-11T19:24:44.589Z,101174.66
2022-12-11T19:27:13.732Z,101178.25
2022-12-11T19:29:40.407Z,101174.56
2022-12-11T19:32:07.330Z,101166.03
2022-12-11T19:34:33.854Z,101165.78
2022-12-11T19:37:00.218Z,101166.75
2022-12-11T19:39:26.886Z,101168.47
2022-12-11T19:41:53.233Z,101165.88
2022-12-11T19:44:20.540Z,101173.78
2022-12-11T19:46:47.165Z,101178.25
2022-12-11T19:49:13.734Z,101173.06
2022-12-11T19:51:45.095Z,101170.56
2022-12-11T19:54:14.754Z,101172.28
2022-12-11T19:56:41.271Z,101167.03
2022-12-11T19:59:09.668Z,101170.25
2022-12-11T20:01:37.637Z,101180.63
2022-12-11T20:04:08.123Z,101174.41
2022-12-11T20:06:37.546Z,101176.38
2022-12-11T20:09:06.415Z,101175.53
2022-12-11T20:11:33.428Z,101173.78
2022-12-11T20:13:59.997Z,101182.50
2022-12-11T20:16:46.164Z,101178.97
2022-12-11T20:19:12.889Z,101186.88
2022-12-11T20:21:40.597Z,101189.53
2022-12-11T20:24:09.087Z,101185.41
2022-12-11T20:26:35.769Z,101182.81
2022-12-11T20:29:03.697Z,101185.41
2022-12-11T20:31:30.147Z,101186.19
2022-12-11T20:33:57.092Z,101188.91
2022-12-11T20:36:24.718Z,101187.19
2022-12-11T20:38:51.635Z,101182.03
2022-12-11T20:41:23.500Z,101190.56
2022-12-11T20:43:50.814Z,101185.16
2022-12-11T20:46:17.914Z,101185.06
2022-12-11T20:48:45.073Z,101181.63
2022-12-11T20:51:13.494Z,101186.94
2022-12-11T20:53:40.797Z,101189.50
2022-12-11T20:56:16.663Z,101188.78
2022-12-11T20:58:43.832Z,101187.19
2022-12-11T21:01:19.905Z,101191.72
2022-12-11T21:03:47.358Z,101191.66
2022-12-11T21:06:21.188Z,101183.88
2022-12-11T21:08:47.763Z,101188.19
2022-12-11T21:11:14.255Z,101189.69
2022-12-11T21:13:40.733Z,101189.31
2022-12-11T21:16:09.340Z,101197.94
2022-12-11T21:18:35.722Z,101189.22
2022-12-11T21:21:02.262Z,101196.25
2022-12-11T21:23:28.776Z,101192.53
2022-12-11T21:25:55.305Z,101197.84
2022-12-11T21:28:21.835Z,101196.06
2022-12-11T21:30:48.249Z,101193.22
2022-12-11T21:33:14.830Z,101190.50
2022-12-11T21:35:41.284Z,101184.28
2022-12-11T21:38:07.870Z,101193.06
2022-12-11T21:40:34.373Z,101194.94
2022-12-11T21:43:00.693Z,101190.31
2022-12-11T21:48:13.822Z,101193.47
2022-12-11T21:50:40.877Z,101192.16
2022-12-11T21:53:07.276Z,101192.56
2022-12-11T21:55:33.583Z,101195.31
2022-12-11T21:58:00.088Z,101209.41
2022-12-11T22:00:26.648Z,101205.16
2022-12-11T22:02:52.991Z,101200.72
2022-12-11T22:05:19.551Z,101214.03
2022-12-11T22:07:45.996Z,101200.84
2022-12-11T22:10:12.442Z,101217.44
2022-12-11T22:12:38.783Z,101208.69
2022-12-11T22:15:05.879Z,101208.81
2022-12-11T22:17:32.215Z,101201.94
2022-12-11T22:19:58.527Z,101207.19
2022-12-11T22:22:25.102Z,101214.31
2022-12-11T22:24:52.872Z,101215.25
2022-12-11T22:27:23.720Z,101212.59
2022-12-11T22:29:50.473Z,101207.19
2022-12-11T22:32:17.014Z,101209.06
2022-12-11T22:34:43.475Z,101213.44
2022-12-11T22:37:09.864Z,101212.59
2022-12-11T22:39:36.163Z,101214.31
2022-12-11T22:42:02.693Z,101214.22
2022-12-11T22:44:29.005Z,101222.38
2022-12-11T22:46:55.356Z,101218.13
2022-12-11T22:49:21.682Z,101217.91
2022-12-11T22:51:48.468Z,101223.25
2022-12-11T22:54:14.863Z,101229.50
2022-12-11T22:56:41.454Z,101219.88
2022-12-11T22:59:07.807Z,101225.13
2022-12-11T23:01:34.351Z,101220.78
2022-12-11T23:04:00.705Z,101216.41
2022-12-11T23:06:27.121Z,101225.19
2022-12-11T23:08:57.565Z,101216.97
2022-12-11T23:11:30.827Z,101225.91
2022-12-11T23:13:57.508Z,101222.38
2022-12-11T23:16:25.925Z,101224.97
2022-12-11T23:18:53.584Z,101224.16
2022-12-11T23:21:20.384Z,101224.16
2022-12-11T23:23:46.710Z,101223.53
2022-12-11T23:26:14.213Z,101219.88
2022-12-11T23:28:40.997Z,101216.31
2022-12-11T23:31:08.395Z,101211.00
2022-12-11T23:33:34.811Z,101210.00
2022-12-11T23:36:01.140Z,101216.19
2022-12-11T23:38:27.728Z,101226.97
2022-12-11T23:40:54.404Z,101223.41
2022-12-11T23:43:20.863Z,101221.81
2022-12-11T23:45:47.259Z,101223.53
2022-12-11T23:48:14.160Z,101217.47
2022-12-11T23:50:41.887Z,101225.28
2022-12-11T23:53:08.544Z,101218.00
2022-12-11T23:55:35.430Z,101216.09
2022-12-11T23:58:01.771Z,101224.25
